Time;durP1;ratioP1;P1;durP2;ratioP2;P2;SDS_P1;SDS_P2;PMS_P1;PMS_P2;Temp;Humidity;BMP_temperature;BMP_pressure;BME280_temperature;BME280_humidity;BME280_pressure;Samples;Min_cycle;Max_cycle;Signal;HPM_P1;HPM_P2
2022/08/24 00:00:09;;;;;;;1.75;1.60;;;;;;;21.57;44.43;100533.69;10247045;29;20094;-78
2022/08/24 00:05:13;;;;;;;4.65;1.70;;;;;;;21.50;44.98;100538.22;10244885;28;20044;-76
2022/08/24 00:10:17;;;;;;;3.38;1.70;;;;;;;21.36;45.25;100531.75;10240422;28;20043;-76
2022/08/24 00:15:22;;;;;;;2.88;1.70;;;;;;;21.24;45.47;100536.88;10254401;29;20103;-77
2022/08/24 00:20:25;;;;;;;7.10;1.63;;;;;;;21.32;45.04;100531.31;10253380;28;20051;-77
2022/08/24 00:25:28;;;;;;;4.20;1.80;;;;;;;21.32;45.46;100531.31;10239856;29;20424;-79
2022/08/24 00:30:33;;;;;;;2.80;1.70;;;;;;;21.31;45.30;100540.56;10258602;29;20056;-77
2022/08/24 00:35:36;;;;;;;4.40;1.90;;;;;;;21.23;45.55;100538.75;10212372;29;20047;-77
2022/08/24 00:40:42;;;;;;;3.33;1.83;;;;;;;21.18;45.73;100530.28;10253745;28;20039;-78
2022/08/24 00:46:03;;;;;;;2.63;1.75;;;;;;;21.19;45.45;100537.44;10257028;28;20055;-79
2022/08/24 00:51:11;;;;;;;3.72;2.05;;;;;;;21.11;45.78;100540.25;10247108;29;20419;-77
2022/08/24 00:56:20;;;;;;;2.63;1.60;;;;;;;20.97;45.99;100544.66;10224059;29;20115;-78
2022/08/24 01:01:26;;;;;;;1.80;1.55;;;;;;;20.95;46.52;100541.31;10226560;29;20047;-79
2022/08/24 01:06:32;;;;;;;2.15;1.90;;;;;;;20.87;46.71;100538.66;10242915;29;20061;-80
2022/08/24 01:11:35;;;;;;;4.72;1.90;;;;;;;20.83;46.68;100544.69;10264570;28;20143;-80
2022/08/24 01:22:15;;;;;;;2.42;1.70;;;;;;;20.72;47.14;100546.84;10243495;28;20047;-80
2022/08/24 01:27:20;;;;;;;4.43;1.80;;;;;;;20.61;47.21;100543.72;10219370;29;20062;-80
2022/08/24 01:32:29;;;;;;;4.80;1.95;;;;;;;20.55;47.55;100543.44;10250502;29;20078;-80
2022/08/24 01:37:33;;;;;;;3.03;1.77;;;;;;;20.51;47.75;100539.38;10244858;28;20044;-78
2022/08/24 01:42:37;;;;;;;3.22;1.73;;;;;;;20.40;47.92;100544.44;10212876;29;20055;-79
2022/08/24 01:47:40;;;;;;;3.17;1.88;;;;;;;20.41;48.07;100547.00;10244148;29;20139;-80
2022/08/24 01:52:44;;;;;;;3.95;1.85;;;;;;;20.39;48.25;100542.75;10237103;29;20046;-80
2022/08/24 01:58:07;;;;;;;3.42;2.00;;;;;;;20.30;48.44;100540.06;10226543;29;20052;-76
2022/08/24 02:03:10;;;;;;;4.38;2.35;;;;;;;20.16;48.75;100545.47;10265071;28;20051;-80
2022/08/24 02:08:14;;;;;;;2.67;2.28;;;;;;;20.05;49.10;100544.03;10231409;29;20056;-79
2022/08/24 02:13:19;;;;;;;3.60;2.30;;;;;;;20.08;48.97;100552.69;10250600;28;20047;-77
2022/08/24 02:18:22;;;;;;;2.95;2.08;;;;;;;20.03;49.17;100546.94;10239142;29;20032;-80
2022/08/24 02:23:27;;;;;;;2.70;1.75;;;;;;;20.00;49.27;100543.75;10261656;28;20044;-78
2022/08/24 02:28:31;;;;;;;3.65;2.10;;;;;;;19.97;49.44;100549.56;10220306;28;20044;-79
2022/08/24 02:33:35;;;;;;;2.78;2.00;;;;;;;19.87;49.66;100544.34;10213606;29;20138;-79
2022/08/24 02:38:39;;;;;;;3.30;2.00;;;;;;;19.86;49.68;100554.41;10249596;28;20059;-77
2022/08/24 02:43:49;;;;;;;5.90;1.67;;;;;;;19.86;49.63;100559.00;10245270;28;20059;-79
2022/08/24 02:48:52;;;;;;;5.47;2.28;;;;;;;19.80;49.95;100555.13;10238195;29;20519;-78
2022/08/24 02:54:16;;;;;;;3.45;2.05;;;;;;;19.72;50.04;100559.75;10218627;29;20067;-78
2022/08/24 02:59:23;;;;;;;1.80;1.70;;;;;;;19.72;50.18;100563.34;10233483;29;20043;-80
2022/08/24 03:04:28;;;;;;;5.18;2.22;;;;;;;19.69;50.33;100560.97;10241093;28;20047;-80
2022/08/24 03:09:31;;;;;;;6.70;1.92;;;;;;;19.64;50.65;100557.97;10219105;29;20047;-79
2022/08/24 03:14:35;;;;;;;3.33;1.85;;;;;;;19.66;50.67;100566.78;10228615;28;20457;-79
2022/08/24 03:19:38;;;;;;;4.15;1.63;;;;;;;19.71;50.73;100574.44;10225441;29;20074;-80
2022/08/24 03:24:42;;;;;;;2.92;1.75;;;;;;;19.70;50.59;100570.84;10240859;28;20048;-80
2022/08/24 03:29:50;;;;;;;2.75;1.70;;;;;;;19.66;50.63;100573.09;10261773;28;20051;-80
2022/08/24 03:34:53;;;;;;;4.28;2.15;;;;;;;19.57;50.80;100570.59;10210305;29;20104;-80
2022/08/24 03:39:56;;;;;;;2.60;1.70;;;;;;;19.64;50.95;100564.25;10228478;29;20067;-80
2022/08/24 03:45:01;;;;;;;2.28;1.95;;;;;;;19.67;50.77;100569.34;10215496;29;20054;-78
2022/08/24 03:50:05;;;;;;;11.43;2.25;;;;;;;19.57;50.91;100571.44;10247628;28;20056;-79
2022/08/24 03:55:10;;;;;;;4.15;2.20;;;;;;;19.44;51.26;100563.81;10246441;28;20055;-79
2022/08/24 04:00:16;;;;;;;2.70;1.85;;;;;;;19.51;51.09;100565.84;10227341;29;20488;-78
2022/08/24 04:05:28;;;;;;;4.28;2.45;;;;;;;19.47;51.20;100559.88;10191513;29;20057;-78
2022/08/24 04:10:37;;;;;;;2.38;1.98;;;;;;;19.40;51.41;100567.06;10269421;28;20054;-79
2022/08/24 04:15:43;;;;;;;3.95;2.10;;;;;;;19.38;51.40;100563.69;10206282;29;20125;-78
2022/08/24 04:20:46;;;;;;;5.70;2.30;;;;;;;19.34;51.56;100567.78;10231471;29;20091;-80
2022/08/24 04:25:52;;;;;;;3.42;2.20;;;;;;;19.24;51.85;100573.44;10240566;28;20051;-78
2022/08/24 04:30:56;;;;;;;2.65;1.92;;;;;;;19.31;51.78;100577.16;10256366;28;20096;-79
2022/08/24 04:36:07;;;;;;;4.15;2.33;;;;;;;19.38;51.84;100575.41;10231506;29;20051;-77
2022/08/24 04:41:14;;;;;;;4.53;2.50;;;;;;;19.30;51.98;100578.16;10207355;29;20508;-79
2022/08/24 04:46:30;;;;;;;4.65;2.35;;;;;;;19.34;51.98;100589.59;10230859;29;20050;-80
2022/08/24 04:51:33;;;;;;;5.07;2.50;;;;;;;19.30;52.19;100590.94;10246504;28;20052;-79
2022/08/24 04:56:39;;;;;;;7.38;2.83;;;;;;;19.31;52.34;100585.34;10254744;28;20058;-80
2022/08/24 05:01:43;;;;;;;3.65;2.55;;;;;;;19.17;52.72;100589.66;10234303;29;20074;-77
2022/08/24 05:06:46;;;;;;;3.08;2.45;;;;;;;19.22;52.64;100589.94;10225711;29;20081;-79
2022/08/24 05:11:56;;;;;;;6.57;2.65;;;;;;;19.24;52.76;100590.63;10258353;29;20066;-80
2022/08/24 05:17:03;;;;;;;4.90;2.40;;;;;;;19.38;52.52;100596.34;10261000;28;20043;-80
2022/08/24 05:22:10;;;;;;;6.55;3.08;;;;;;;19.33;52.66;100599.59;10225722;29;20048;-79
2022/08/24 05:27:19;;;;;;;4.35;2.75;;;;;;;19.47;52.49;100611.63;10222576;29;20118;-79
2022/08/24 05:32:27;;;;;;;5.47;2.40;;;;;;;19.51;52.61;100603.97;10248696;28;20076;-79
2022/08/24 05:37:30;;;;;;;3.47;2.90;;;;;;;19.61;52.44;100618.22;10258133;28;20071;-80
2022/08/24 05:42:54;;;;;;;4.75;2.42;;;;;;;19.79;51.96;100621.56;10237335;28;20095;-80
2022/08/24 05:47:59;;;;;;;3.70;2.50;;;;;;;19.74;52.01;100615.78;10218785;29;20047;-80
2022/08/24 05:53:37;;;;;;;2.72;2.53;;;;;;;19.97;52.13;100625.91;10238150;29;20088;-76
2022/08/24 05:58:42;;;;;;;5.90;2.72;;;;;;;20.13;51.96;100620.34;10245290;29;20075;-79
2022/08/24 06:03:48;;;;;;;7.60;2.50;;;;;;;20.13;51.39;100626.63;10245997;28;20047;-80
2022/08/24 06:08:54;;;;;;;4.85;2.80;;;;;;;20.44;51.24;100625.75;10230995;29;20145;-79
2022/08/24 06:14:00;;;;;;;3.65;2.58;;;;;;;20.49;51.22;100626.03;10211186;29;20039;-79
2022/08/24 06:19:09;;;;;;;4.07;2.55;;;;;;;20.64;50.81;100630.69;10280708;28;20055;-76
2022/08/24 06:24:14;;;;;;;8.13;2.83;;;;;;;20.69;50.40;100636.44;10247603;28;20103;-80
2022/08/24 06:29:20;;;;;;;3.65;2.55;;;;;;;20.82;49.82;100642.13;10208518;29;20043;-80
2022/08/24 06:34:29;;;;;;;5.32;2.28;;;;;;;21.18;49.51;100634.09;10247350;28;20054;-79
2022/08/24 06:39:32;;;;;;;3.05;2.60;;;;;;;21.05;49.47;100639.34;10216727;29;20078;-78
2022/08/24 06:44:37;;;;;;;7.35;2.55;;;;;;;21.38;49.36;100644.44;10212468;29;20055;-79
2022/08/24 06:49:53;;;;;;;7.32;2.70;;;;;;;21.38;49.22;100650.75;10216728;28;20163;-79
2022/08/24 06:54:56;;;;;;;7.85;2.72;;;;;;;22.08;49.11;100652.09;10233183;29;20146;-79
2022/08/24 06:59:59;;;;;;;3.30;2.42;;;;;;;22.31;48.03;100659.25;10250236;28;20043;-79
2022/08/24 07:05:05;;;;;;;10.80;2.70;;;;;;;22.39;47.26;100656.41;10214271;29;20058;-80
2022/08/24 07:10:38;;;;;;;5.88;2.33;;;;;;;22.09;47.45;100663.88;10204503;28;20573;-79
2022/08/24 07:15:41;;;;;;;4.05;1.90;;;;;;;22.84;46.57;100664.38;10214170;29;20047;-80
2022/08/24 07:20:49;;;;;;;4.72;2.45;;;;;;;23.45;45.45;100667.38;10229489;29;20108;-78
2022/08/24 07:26:13;;;;;;;3.65;2.47;;;;;;;23.69;44.79;100679.72;10237036;28;20504;-80
2022/08/24 07:31:25;;;;;;;4.63;2.65;;;;;;;24.07;44.32;100676.53;10222059;29;20099;-78
2022/08/24 07:36:40;;;;;;;6.23;2.63;;;;;;;24.29;44.12;100682.69;10207969;29;20130;-79
2022/08/24 07:41:47;;;;;;;5.65;2.38;;;;;;;24.63;43.71;100675.38;10241213;28;20047;-79
2022/08/24 07:47:09;;;;;;;4.88;2.35;;;;;;;24.90;43.64;100682.59;10156926;28;20554;-78
2022/08/24 07:52:35;;;;;;;5.13;2.33;;;;;;;25.08;43.34;100683.88;10177428;28;20072;-77
2022/08/24 07:57:38;;;;;;;3.40;2.30;;;;;;;25.36;42.27;100678.94;10174554;28;20413;-77
2022/08/24 08:02:45;;;;;;;6.68;2.30;;;;;;;25.58;41.88;100690.53;10192175;28;20054;-79
2022/08/24 08:07:52;;;;;;;5.03;2.53;;;;;;;26.05;40.77;100699.50;10181818;28;20075;-79
2022/08/24 08:12:55;;;;;;;3.65;2.33;;;;;;;26.33;40.34;100700.19;10184535;28;20046;-79
2022/08/24 08:17:58;;;;;;;4.05;2.20;;;;;;;26.64;39.97;100700.22;10198135;28;20106;-77
2022/08/24 08:28:49;;;;;;;4.60;2.88;;;;;;;26.88;38.80;100684.78;10200799;28;20122;-76
2022/08/24 08:33:53;;;;;;;5.82;2.22;;;;;;;27.27;38.26;100687.41;10183764;28;20477;-80
2022/08/24 08:38:58;;;;;;;5.22;2.28;;;;;;;27.84;37.63;100685.28;10177375;28;20723;-78
2022/08/24 08:44:06;;;;;;;4.72;2.00;;;;;;;29.35;34.77;100685.13;10211927;28;20043;-79
2022/08/24 08:49:30;;;;;;;4.97;2.33;;;;;;;29.66;33.92;100686.66;10210451;28;20078;-78
2022/08/24 08:54:44;;;;;;;6.45;2.08;;;;;;;29.00;35.42;100679.56;10192498;28;20055;-79
2022/08/24 09:00:05;;;;;;;5.40;2.40;;;;;;;28.85;35.65;100696.59;10209281;28;20058;-77
2022/08/24 09:05:43;;;;;;;4.25;2.10;;;;;;;28.68;35.80;100691.75;10194307;28;20061;-77
2022/08/24 09:10:57;;;;;;;3.55;2.40;;;;;;;28.87;35.37;100686.16;10198561;28;20051;-79
2022/08/24 09:16:24;;;;;;;4.80;2.05;;;;;;;28.82;34.58;100680.50;10192976;28;20055;-79
2022/08/24 09:21:44;;;;;;;5.47;1.92;;;;;;;29.56;34.59;100684.47;10221675;28;20434;-78
2022/08/24 09:26:58;;;;;;;3.90;2.30;;;;;;;30.31;32.57;100684.66;10225415;28;20380;-79
2022/08/24 09:32:22;;;;;;;2.88;2.35;;;;;;;30.49;31.63;100678.88;10223385;28;20051;-78
2022/08/24 09:37:32;;;;;;;4.53;1.98;;;;;;;30.32;32.09;100673.31;10209241;28;20055;-78
2022/08/24 09:43:07;;;;;;;3.78;2.22;;;;;;;30.77;32.28;100677.16;10204382;28;20719;-79
2022/08/24 09:48:58;;;;;;;8.52;2.20;;;;;;;31.68;30.56;100676.88;10202887;28;20355;-78
2022/08/24 09:54:52;;;;;;;3.22;2.17;;;;;;;31.96;30.42;100673.91;10175884;28;20055;-78
2022/08/24 10:00:11;;;;;;;2.75;2.13;;;;;;;32.40;29.73;100662.72;10189161;28;20071;-79
2022/08/24 10:05:23;;;;;;;;;;;;;;;32.96;29.35;100665.13;10196522;28;20181;-79
2022/08/24 10:10:33;;;;;;;3.55;1.77;;;;;;;33.11;29.27;100658.84;10189280;28;19933;-79
2022/08/24 10:15:47;;;;;;;3.83;2.10;;;;;;;33.88;27.69;100648.97;10210599;28;20051;-79
2022/08/24 10:21:05;;;;;;;2.20;2.00;;;;;;;34.47;26.94;100638.47;10207452;28;20055;-80
2022/08/24 10:26:19;;;;;;;3.58;2.03;;;;;;;34.63;26.41;100629.84;10212184;28;21262;-78
2022/08/24 10:31:32;;;;;;;6.85;2.45;;;;;;;34.49;26.16;100639.88;10205077;28;20051;-79
2022/08/24 10:37:14;;;;;;;4.10;2.00;;;;;;;34.08;26.82;100637.00;10203439;28;20040;-79
2022/08/24 10:49:00;;;;;;;7.57;2.13;;;;;;;34.04;26.81;100633.13;10207779;28;20047;-80
2022/08/24 10:54:05;;;;;;;10.73;2.28;;;;;;;34.45;25.96;100630.41;10088877;29;20071;-79
2022/08/24 10:59:23;;;;;;;3.85;1.95;;;;;;;34.60;25.70;100636.00;10153521;28;20063;-80
2022/08/24 11:04:29;;;;;;;5.22;2.05;;;;;;;35.09;26.18;100631.78;10201214;28;20146;-80
2022/08/24 11:09:44;;;;;;;5.32;2.22;;;;;;;36.83;24.93;100626.06;10193482;28;20059;-80
2022/08/24 11:14:48;;;;;;;3.28;2.03;;;;;;;38.22;22.87;100618.75;10194643;28;20085;-80
2022/08/24 11:19:52;;;;;;;7.53;2.83;;;;;;;38.52;22.56;100620.22;10191406;28;20148;-79
2022/08/24 11:24:58;;;;;;;3.45;2.55;;;;;;;38.60;22.08;100613.91;10194862;28;20436;-79
2022/08/24 11:30:09;;;;;;;2.97;1.73;;;;;;;38.01;22.04;100621.81;10168933;28;20052;-80
2022/08/24 11:35:22;;;;;;;2.65;2.22;;;;;;;38.38;22.51;100608.09;10192523;28;20423;-80
2022/08/24 11:40:30;;;;;;;4.30;2.20;;;;;;;38.88;21.62;100609.16;10185564;28;20662;-79
2022/08/24 11:45:40;;;;;;;3.05;2.33;;;;;;;37.99;22.71;100607.28;10190895;28;20043;-79
2022/08/24 11:50:52;;;;;;;2.90;2.30;;;;;;;37.53;22.86;100609.88;10188933;28;20454;-79
2022/08/24 11:56:04;;;;;;;6.47;2.40;;;;;;;38.88;22.28;100602.72;10196419;28;20047;-81
2022/08/24 12:01:17;;;;;;;2.95;2.00;;;;;;;39.64;21.76;100592.75;10216993;28;20090;-80
2022/08/24 12:06:33;;;;;;;3.33;1.83;;;;;;;39.50;21.58;100605.16;10204720;28;20087;-79
2022/08/24 12:11:43;;;;;;;4.47;2.00;;;;;;;38.95;21.49;100601.22;10207016;28;20067;-79
2022/08/24 12:16:54;;;;;;;4.57;1.80;;;;;;;38.72;22.59;100593.75;10199472;28;20513;-80
2022/08/24 12:22:02;;;;;;;2.92;2.08;;;;;;;39.15;22.16;100585.09;10199017;28;20107;-81
2022/08/24 12:27:09;;;;;;;4.43;2.10;;;;;;;38.77;21.19;100588.06;10217729;28;20044;-80
2022/08/24 12:32:18;;;;;;;4.00;2.15;;;;;;;37.26;22.01;100592.56;10206002;28;20102;-79
2022/08/24 12:37:30;;;;;;;5.15;2.30;;;;;;;39.48;20.52;100583.00;10233045;28;20075;-79
2022/08/24 12:42:44;;;;;;;4.57;2.42;;;;;;;40.20;19.95;100585.00;10212529;28;20083;-81
2022/08/24 12:48:00;;;;;;;3.80;2.43;;;;;;;39.71;20.57;100583.06;10225084;28;20048;-79
2022/08/24 12:53:27;;;;;;;3.53;2.03;;;;;;;39.18;20.76;100576.88;10233146;28;20047;-81
2022/08/24 12:58:51;;;;;;;5.90;2.10;;;;;;;39.45;21.57;100578.03;10191993;28;20039;-82
2022/08/24 13:04:12;;;;;;;3.05;1.85;;;;;;;38.03;22.22;100566.28;10201143;28;20059;-81
2022/08/24 13:09:29;;;;;;;3.97;2.20;;;;;;;38.21;21.52;100574.97;10177167;28;20517;-80
2022/08/24 13:14:34;;;;;;;2.63;1.83;;;;;;;38.07;21.60;100561.75;10198598;28;20059;-82
2022/08/24 13:19:40;;;;;;;4.90;2.40;;;;;;;37.86;22.10;100569.63;10195113;28;20051;-82
2022/08/24 13:24:46;;;;;;;3.92;2.15;;;;;;;38.03;21.75;100560.66;10197786;28;20066;-80
2022/08/24 13:30:00;;;;;;;2.90;1.88;;;;;;;38.63;22.12;100561.94;10196668;28;20063;-81
2022/08/24 13:35:33;;;;;;;2.55;1.98;;;;;;;39.20;20.63;100554.94;10202507;28;20048;-81
2022/08/24 13:40:50;;;;;;;3.13;2.20;;;;;;;39.24;21.77;100558.75;10201127;28;20051;-81
2022/08/24 13:45:59;;;;;;;2.65;2.03;;;;;;;38.24;21.70;100552.78;10204036;28;20454;-82
2022/08/24 13:51:33;;;;;;;3.85;2.28;;;;;;;38.04;22.21;100550.28;10183263;28;20063;-80
2022/08/24 13:57:04;;;;;;;6.15;2.58;;;;;;;38.87;22.12;100548.56;10210804;28;20130;-82
2022/08/24 14:02:24;;;;;;;1.70;1.60;;;;;;;39.63;21.19;100548.09;10204157;28;20107;-81
2022/08/24 14:07:31;;;;;;;5.80;1.92;;;;;;;38.66;21.58;100550.09;10187748;28;20048;-80
2022/08/24 14:12:48;;;;;;;2.50;1.88;;;;;;;39.26;21.09;100543.59;10202107;28;20076;-81
2022/08/24 14:18:06;;;;;;;4.47;2.15;;;;;;;39.95;21.26;100537.81;10217418;28;20080;-81
2022/08/24 14:23:26;;;;;;;4.50;2.28;;;;;;;38.00;21.61;100532.44;10199889;28;20047;-81
2022/08/24 14:28:40;;;;;;;2.80;1.88;;;;;;;35.26;23.81;100536.53;10226172;28;20107;-80
2022/08/24 14:33:53;;;;;;;4.63;2.50;;;;;;;34.23;24.77;100530.34;10200796;28;20059;-80
2022/08/24 14:39:03;;;;;;;2.25;1.98;;;;;;;33.78;25.85;100529.16;10176733;28;20043;-80
2022/08/24 14:44:36;;;;;;;4.38;2.25;;;;;;;33.47;26.46;100534.63;10194425;28;20051;-80
2022/08/24 14:49:45;;;;;;;5.05;2.08;;;;;;;33.25;28.54;100522.88;10193685;28;20474;-80
2022/08/24 14:55:03;;;;;;;4.07;2.03;;;;;;;33.06;29.42;100519.69;10194513;28;20142;-79
2022/08/24 15:00:12;;;;;;;3.85;2.25;;;;;;;32.92;29.50;100529.66;10214512;28;20066;-79
2022/08/24 15:05:23;;;;;;;3.15;2.20;;;;;;;33.88;25.55;100522.75;10198368;28;20119;-81
2022/08/24 15:10:35;;;;;;;2.35;1.98;;;;;;;34.17;25.33;100512.78;10223207;28;20731;-81
2022/08/24 15:15:45;;;;;;;6.28;2.17;;;;;;;34.39;24.98;100506.91;10200860;28;20150;-80
2022/08/24 15:21:02;;;;;;;4.80;2.60;;;;;;;33.42;25.95;100508.72;10209454;28;20062;-80
2022/08/24 15:26:14;;;;;;;3.35;1.98;;;;;;;34.95;24.86;100500.34;10195744;28;20517;-81
2022/08/24 15:31:23;;;;;;;2.42;2.10;;;;;;;35.21;23.78;100503.88;10237606;28;20107;-80
2022/08/24 15:36:28;;;;;;;3.15;2.17;;;;;;;33.83;24.97;100501.31;10225375;28;20078;-81
2022/08/24 15:41:35;;;;;;;2.33;1.88;;;;;;;33.77;25.88;100497.69;10214314;28;20067;-82
2022/08/24 15:46:43;;;;;;;8.15;3.38;;;;;;;33.27;26.88;100490.88;10219317;28;20047;-81
2022/08/24 15:51:50;;;;;;;3.47;2.00;;;;;;;33.33;26.14;100494.50;10199150;28;20076;-82
2022/08/24 15:56:57;;;;;;;2.80;1.90;;;;;;;32.83;25.62;100501.50;10199377;28;20051;-81
2022/08/24 16:02:29;;;;;;;3.72;2.20;;;;;;;34.26;25.06;100503.81;10207991;28;20051;-82
2022/08/24 16:07:54;;;;;;;6.72;2.10;;;;;;;34.92;24.55;100491.72;10198546;28;20047;-82
2022/08/24 16:13:07;;;;;;;4.10;2.00;;;;;;;34.87;23.67;100492.56;10186066;28;20048;-82
2022/08/24 16:18:12;;;;;;;3.17;2.42;;;;;;;34.99;23.94;100493.06;10199331;28;20052;-81
2022/08/24 16:23:24;;;;;;;4.35;1.85;;;;;;;35.67;24.58;100486.88;10204208;28;20054;-79
2022/08/24 16:28:36;;;;;;;2.20;2.08;;;;;;;34.96;27.00;100495.59;10211916;28;20079;-79
2022/08/24 16:33:44;;;;;;;2.13;1.80;;;;;;;34.31;27.72;100493.53;10207131;28;20051;-79
2022/08/24 16:38:49;;;;;;;4.30;1.88;;;;;;;33.93;27.59;100492.13;10211899;28;20076;-79
2022/08/24 16:43:52;;;;;;;4.50;2.22;;;;;;;33.93;27.77;100494.91;10204148;28;20047;-79
2022/08/24 16:48:57;;;;;;;4.40;2.08;;;;;;;33.06;28.17;100491.88;10231763;28;20048;-79
2022/08/24 16:54:00;;;;;;;2.58;1.90;;;;;;;32.00;28.88;100499.19;10195503;28;20043;-79
2022/08/24 16:59:05;;;;;;;4.55;1.92;;;;;;;31.59;29.38;100504.34;10204798;28;20059;-79
2022/08/24 17:04:09;;;;;;;5.90;2.13;;;;;;;32.24;28.45;100502.50;10219613;28;20051;-78
2022/08/24 17:09:12;;;;;;;3.58;1.63;;;;;;;32.35;27.03;100498.69;10223809;28;20106;-78
2022/08/24 17:14:15;;;;;;;3.88;2.10;;;;;;;32.59;28.03;100495.50;10210550;28;20150;-79
2022/08/24 17:19:20;;;;;;;2.75;1.90;;;;;;;32.58;28.11;100500.22;10230834;28;20050;-79
2022/08/24 17:24:24;;;;;;;2.63;1.90;;;;;;;32.29;27.65;100494.19;10214901;28;20051;-78
2022/08/24 17:29:27;;;;;;;4.35;2.05;;;;;;;32.28;28.18;100506.44;10194280;28;20067;-79
2022/08/24 17:34:32;;;;;;;7.07;1.80;;;;;;;31.71;28.19;100515.34;10201101;28;20077;-77
2022/08/24 17:39:35;;;;;;;4.40;1.92;;;;;;;31.32;29.02;100521.81;10211339;28;20062;-79
2022/08/24 17:44:38;;;;;;;3.55;1.83;;;;;;;31.03;29.57;100523.09;10181402;28;20051;-77
2022/08/24 17:49:43;;;;;;;4.38;2.20;;;;;;;30.42;30.96;100526.63;10194194;28;20052;-82
2022/08/24 17:54:45;;;;;;;8.13;2.40;;;;;;;30.00;31.63;100540.00;10216480;28;20058;-80
2022/08/24 17:59:49;;;;;;;5.13;2.10;;;;;;;29.53;32.10;100534.69;10211236;28;20141;-78
2022/08/24 18:04:53;;;;;;;2.67;2.08;;;;;;;29.40;31.46;100541.34;10208409;28;20075;-83
2022/08/24 18:09:59;;;;;;;3.80;2.08;;;;;;;29.17;30.74;100545.03;10198729;28;20213;-81
2022/08/24 18:15:02;;;;;;;3.65;1.98;;;;;;;29.13;31.26;100550.22;10208476;28;20055;-82
2022/08/24 18:20:09;;;;;;;3.97;2.10;;;;;;;28.91;31.74;100560.19;10192707;28;20064;-80
2022/08/24 18:25:13;;;;;;;4.75;2.20;;;;;;;28.76;31.48;100560.69;10213215;28;20058;-82
2022/08/24 18:30:21;;;;;;;4.63;2.13;;;;;;;28.63;31.91;100572.84;10199149;28;20059;-83
2022/08/24 18:35:29;;;;;;;5.13;2.03;;;;;;;28.43;32.26;100581.41;10212881;28;20051;-81
2022/08/24 18:40:32;;;;;;;5.65;2.30;;;;;;;28.20;32.26;100581.38;10200413;28;20472;-81
2022/08/24 18:45:36;;;;;;;5.90;2.22;;;;;;;28.11;31.61;100596.59;10201425;28;20055;-80
2022/08/24 18:50:41;;;;;;;8.07;2.42;;;;;;;28.03;32.03;100595.88;10198706;28;20047;-80
2022/08/24 18:55:46;;;;;;;7.03;2.72;;;;;;;27.92;32.25;100601.28;10219407;28;20107;-81
2022/08/24 19:00:49;;;;;;;9.45;2.13;;;;;;;27.75;32.08;100601.13;10203139;28;20066;-81
2022/08/24 19:05:55;;;;;;;4.20;2.40;;;;;;;27.66;32.84;100610.78;10203334;28;20632;-81
2022/08/24 19:10:58;;;;;;;3.50;2.55;;;;;;;27.49;32.45;100608.66;10207927;28;20062;-81
2022/08/24 19:16:01;;;;;;;7.85;2.53;;;;;;;27.35;32.90;100610.72;10213042;28;20056;-81
2022/08/24 19:21:06;;;;;;;7.63;2.55;;;;;;;27.18;32.90;100613.25;10210014;28;20059;-79
2022/08/24 19:26:09;;;;;;;5.20;2.25;;;;;;;27.01;33.20;100606.63;10184171;28;20150;-80
2022/08/24 19:31:13;;;;;;;8.43;2.38;;;;;;;26.82;33.05;100619.53;10194849;28;20047;-78
2022/08/24 19:36:18;;;;;;;9.05;2.80;;;;;;;26.70;33.60;100621.31;10211432;28;20055;-80
2022/08/24 19:41:21;;;;;;;6.93;1.90;;;;;;;26.57;33.74;100621.44;10183307;28;20050;-78
2022/08/24 19:46:37;;;;;;;5.03;2.00;;;;;;;26.47;33.80;100627.47;10186712;28;20055;-77
2022/08/24 19:51:41;;;;;;;4.55;2.17;;;;;;;26.35;33.96;100618.22;10192577;28;20083;-79
2022/08/24 19:56:45;;;;;;;3.70;1.70;;;;;;;26.22;34.26;100622.72;10192168;28;20051;-79
2022/08/24 20:01:48;;;;;;;6.40;2.60;;;;;;;26.07;34.40;100636.78;10195311;28;20059;-79
2022/08/24 20:06:53;;;;;;;6.90;2.42;;;;;;;25.93;34.50;100635.19;10202804;28;20052;-78
2022/08/24 20:11:55;;;;;;;4.40;2.00;;;;;;;25.82;34.81;100630.38;10207431;28;20055;-80
2022/08/24 20:16:59;;;;;;;11.35;4.15;;;;;;;25.78;35.24;100640.13;10207977;28;20051;-79
2022/08/24 20:22:03;;;;;;;4.60;2.00;;;;;;;25.68;35.19;100639.75;10182907;28;20051;-80
2022/08/24 20:27:19;;;;;;;4.55;1.90;;;;;;;25.56;35.01;100648.66;10180971;28;20058;-80
2022/08/24 20:32:22;;;;;;;6.63;2.15;;;;;;;25.47;35.39;100654.59;10198784;28;20039;-80
2022/08/24 20:37:30;;;;;;;5.10;2.00;;;;;;;25.34;35.34;100648.09;10203285;28;20429;-80
2022/08/24 20:42:32;;;;;;;6.55;2.70;;;;;;;25.23;35.54;100654.22;10201821;28;20103;-79
2022/08/24 20:47:39;;;;;;;5.22;2.53;;;;;;;25.10;36.01;100649.63;10201227;28;20055;-79
2022/08/24 20:52:44;;;;;;;5.18;2.03;;;;;;;25.01;36.09;100653.59;10202152;28;20244;-78
2022/08/24 20:57:49;;;;;;;10.85;2.55;;;;;;;24.87;36.04;100650.03;10208881;28;20056;-79
2022/08/24 21:02:52;;;;;;;5.57;2.25;;;;;;;24.76;36.51;100657.00;10201213;28;20513;-79
2022/08/24 21:07:57;;;;;;;5.07;1.98;;;;;;;24.69;36.55;100655.34;10196614;28;20153;-78
2022/08/24 21:13:01;;;;;;;8.40;2.10;;;;;;;24.65;36.34;100662.28;10207876;28;20056;-78
2022/08/24 21:18:04;;;;;;;6.93;2.38;;;;;;;24.58;36.44;100661.47;10189412;28;20111;-77
2022/08/24 21:23:09;;;;;;;3.95;1.90;;;;;;;24.49;36.84;100661.66;10209785;28;20092;-79
2022/08/24 21:28:15;;;;;;;6.82;1.90;;;;;;;24.45;36.60;100668.63;10234817;23;20066;-79
2022/08/24 21:38:40;;;;;;;5.70;2.00;;;;;;;24.43;36.80;100665.22;10174342;29;20092;-80
2022/08/24 21:43:47;;;;;;;3.70;2.33;;;;;;;24.37;36.79;100670.69;10170767;29;20056;-80
2022/08/24 21:48:50;;;;;;;6.63;1.88;;;;;;;24.25;37.34;100678.69;10172404;29;20490;-80
2022/08/24 21:53:54;;;;;;;2.30;2.10;;;;;;;24.16;37.20;100680.75;10166102;29;20399;-79
2022/08/24 21:59:01;;;;;;;3.80;1.90;;;;;;;24.20;37.31;100675.72;10172534;29;20044;-80
2022/08/24 22:04:04;;;;;;;4.47;1.85;;;;;;;24.11;37.45;100691.53;10172466;29;20045;-78
2022/08/24 22:09:09;;;;;;;7.55;2.30;;;;;;;24.07;37.65;100693.81;10156436;29;20052;-79
2022/08/24 22:14:14;;;;;;;4.10;2.42;;;;;;;23.90;38.18;100686.19;10166859;29;20415;-80
2022/08/24 22:19:17;;;;;;;5.38;2.10;;;;;;;23.82;37.94;100679.81;10170696;29;20116;-80
2022/08/24 22:24:21;;;;;;;4.20;1.88;;;;;;;23.71;38.40;100676.78;10155379;29;20074;-80
2022/08/24 22:29:24;;;;;;;3.25;1.77;;;;;;;23.62;38.26;100681.59;10153438;29;20089;-79
2022/08/24 22:34:27;;;;;;;7.45;2.33;;;;;;;23.60;38.45;100676.31;10171084;29;20608;-80
2022/08/24 22:39:32;;;;;;;4.10;1.90;;;;;;;23.55;38.78;100675.22;10145131;29;20045;-79
2022/08/24 22:44:35;;;;;;;5.45;2.15;;;;;;;23.44;38.68;100676.63;10163596;29;20115;-80
2022/08/24 22:49:42;;;;;;;6.80;2.00;;;;;;;23.42;38.81;100670.50;10165835;29;20067;-79
2022/08/24 22:54:46;;;;;;;3.83;2.00;;;;;;;23.35;39.22;100666.91;10174274;29;20100;-79
2022/08/24 22:59:49;;;;;;;4.82;2.08;;;;;;;23.34;39.14;100656.97;10150331;29;20407;-80
2022/08/24 23:04:53;;;;;;;2.28;1.95;;;;;;;23.31;39.31;100666.47;10143667;29;20048;-78
2022/08/24 23:09:57;;;;;;;4.63;2.20;;;;;;;23.31;39.56;100666.47;10149796;29;20056;-80
2022/08/24 23:15:00;;;;;;;6.80;2.33;;;;;;;23.24;40.40;100672.94;10170460;29;20044;-79
2022/08/24 23:20:06;;;;;;;3.78;2.13;;;;;;;23.15;41.03;100669.53;10152182;29;20135;-80
2022/08/24 23:25:13;;;;;;;5.10;2.08;;;;;;;22.98;40.89;100667.06;10172676;29;20055;-79
2022/08/24 23:30:16;;;;;;;3.75;2.03;;;;;;;22.85;41.34;100661.47;10170856;29;20052;-79
2022/08/24 23:35:18;;;;;;;6.80;2.47;;;;;;;22.75;41.53;100667.28;10170809;29;20092;-80
2022/08/24 23:40:23;;;;;;;2.13;1.92;;;;;;;22.70;41.94;100661.53;10162896;29;20045;-79
2022/08/24 23:45:26;;;;;;;2.50;2.05;;;;;;;22.66;41.24;100662.16;10158270;29;20108;-80
2022/08/24 23:50:33;;;;;;;4.60;2.15;;;;;;;22.66;41.24;100668.47;10168309;29;20041;-80
2022/08/24 23:55:37;;;;;;;3.15;1.90;;;;;;;22.61;41.31;100657.25;10158611;29;20052;-77
